Terminal Aerodrome Forecast
Issued by NWS Louisville, KY

Home | Current Version | Previous Version | Text Only | Print | Product List | Glossary On
Versions: 1 2 3 4 5 6 7 8 9 10 11 12 13 14 15 16
000
FTUS43 KLMK 241500 AAB
TAFSDF
TAF AMD
KSDF 241558Z 2416/2518 25022G35KT P6SM BKN021
     FM241800 25018G27KT P6SM BKN025
     FM250100 24012KT P6SM BKN025
     FM250800 25009KT P6SM SCT035=

USA.gov is the U.S. government's official web portal to all federal, state and local government web resources and services.